Terminal Aerodrome Forecast
Issued by NWS

Home | Current Version | Previous Version | Text Only | Print | Product List | Glossary On
Versions: 1 2 3 4 5 6 7 8 9 10 11 12 13 14 15 16 17 18 19 20
000
FTUS43 KICT 151333 AAA
TAFCNU
TAF AMD
KCNU 151333Z 1514/1612 36015G22KT P6SM -SN OVC015
      TEMPO 1514/1516 2SM -SN BR OVC008
     FM151600 35015G25KT P6SM SCT025 OVC035
     FM151800 34017G27KT P6SM BKN110
     FM160100 34014KT P6SM BKN150
     FM160300 34012KT P6SM SCT090=

USA.gov is the U.S. government's official web portal to all federal, state and local government web resources and services.